Weather at Ganado Airport

Public forecast

Using degrees Fahrenheit for public forecast. Weather courtesy of forecast.io.

Closest aviation weather report (METAR) to Ganado Airport

Closest report is Window Rock Airport, 22.2 nm (41.0 km) E. Retrieved 2020/10/28 04:53 UTC (38 minutes ago):

KRQE 280453Z AUTO 00000KT 10SM CLR M02/M05 A3011 RMK AO2 SLP193 T10221050 TSNO

Closest aviation forecast (TAF) to Ganado Airport

Closest forecast is Gallup Municipal Airport, 37.3 nm (69.2 km) ESE. Retrieved 2020-10-28 00:36 UTC (5 hours ago):

TAF KGUP 272334Z 2800/2824 00000KT 2SM -SN BR BKN030 OVC040 FM280300 00000KT P6SM OVC025 FM280900 VRB03KT 3SM BR SCT010 TEMPO 2810/2814 1SM BR BKN007 FM281600 VRB05KT P6SM FEW050